createdAt,value
2019-03-17T00:03:39.656Z,0.90
2019-03-17T00:08:43.645Z,0.80
2019-03-17T00:13:47.591Z,1.00
2019-03-17T00:18:51.894Z,0.70
2019-03-17T00:23:55.609Z,1.03
2019-03-17T00:28:59.318Z,0.70
2019-03-17T00:34:03.055Z,0.80
2019-03-17T00:39:06.933Z,0.97
2019-03-17T00:44:10.701Z,0.80
2019-03-17T00:49:14.430Z,0.80
2019-03-17T00:54:18.212Z,1.53
2019-03-17T00:59:21.984Z,0.90
2019-03-17T01:04:25.673Z,1.23
2019-03-17T01:09:29.357Z,1.10
2019-03-17T01:14:33.409Z,1.27
2019-03-17T01:19:37.076Z,1.27
2019-03-17T01:24:41.005Z,1.10
2019-03-17T01:29:44.677Z,1.30
2019-03-17T01:34:48.372Z,1.10
2019-03-17T01:39:52.045Z,1.33
2019-03-17T01:44:55.697Z,1.37
2019-03-17T01:49:59.625Z,1.53
2019-03-17T01:55:03.497Z,1.30
2019-03-17T02:00:07.862Z,1.30
2019-03-17T02:05:21.580Z,1.63
2019-03-17T02:10:17.205Z,1.80
2019-03-17T02:15:20.853Z,1.40
2019-03-17T02:20:24.525Z,1.20
2019-03-17T02:25:28.190Z,1.30
2019-03-17T02:30:31.891Z,1.20
2019-03-17T02:35:39.540Z,1.10
2019-03-17T02:40:40.922Z,1.10
2019-03-17T02:45:44.561Z,1.23
2019-03-17T02:50:48.218Z,1.60
2019-03-17T02:55:51.859Z,1.73
2019-03-17T03:00:55.507Z,1.37
2019-03-17T03:05:59.171Z,1.90
2019-03-17T03:11:02.803Z,1.83
2019-03-17T03:16:06.498Z,2.10
2019-03-17T03:21:10.184Z,2.13
2019-03-17T03:26:14.161Z,2.40
2019-03-17T03:31:18.151Z,2.23
2019-03-17T03:36:22.147Z,2.13
2019-03-17T03:41:26.145Z,1.90
2019-03-17T03:46:30.384Z,2.30
2019-03-17T03:51:34.044Z,2.30
2019-03-17T03:56:37.691Z,2.23
2019-03-17T04:01:41.652Z,1.90
2019-03-17T04:06:45.295Z,2.10
2019-03-17T04:11:48.938Z,2.10
2019-03-17T04:16:52.712Z,2.07
2019-03-17T04:21:56.385Z,2.67
2019-03-17T04:27:00.114Z,2.40
2019-03-17T04:32:03.861Z,2.13
2019-03-17T04:37:07.511Z,2.83
2019-03-17T04:42:11.199Z,2.57
2019-03-17T04:47:14.941Z,2.60
2019-03-17T04:52:18.696Z,2.90
2019-03-17T04:57:22.361Z,3.30
2019-03-17T05:02:26.015Z,3.00
2019-03-17T05:07:30.095Z,3.57
2019-03-17T05:12:34.028Z,3.37
2019-03-17T05:17:37.705Z,3.67
2019-03-17T05:22:41.371Z,3.60
2019-03-17T05:27:45.033Z,3.60
2019-03-17T05:32:48.745Z,3.73
2019-03-17T05:37:52.705Z,3.47
2019-03-17T05:42:56.674Z,3.43
2019-03-17T05:48:00.886Z,3.40
2019-03-17T05:53:04.633Z,3.50
2019-03-17T05:58:08.318Z,3.37
2019-03-17T06:03:11.961Z,2.90
2019-03-17T06:08:15.934Z,2.87
2019-03-17T06:13:19.672Z,2.60
2019-03-17T06:18:23.335Z,2.87
2019-03-17T06:23:27.002Z,2.77
2019-03-17T06:28:30.746Z,2.67
2019-03-17T06:33:34.417Z,2.43
2019-03-17T06:38:38.072Z,2.10
2019-03-17T06:43:41.729Z,2.50
2019-03-17T06:48:45.450Z,2.37
2019-03-17T06:53:56.363Z,2.70
2019-03-17T06:58:55.154Z,1.67
2019-03-17T07:03:59.086Z,1.73
2019-03-17T07:09:04.138Z,1.80
2019-03-17T07:14:07.798Z,2.27
2019-03-17T07:19:11.761Z,1.80
2019-03-17T07:24:15.422Z,1.90
2019-03-17T07:29:56.667Z,1.50
2019-03-17T07:35:00.848Z,1.50
2019-03-17T07:40:05.058Z,1.50
2019-03-17T07:45:09.213Z,1.70
2019-03-17T07:50:13.238Z,1.50
2019-03-17T07:55:16.906Z,1.83
2019-03-17T08:00:31.334Z,2.33
2019-03-17T08:05:26.270Z,1.60
2019-03-17T08:10:30.014Z,2.23
2019-03-17T08:15:34.015Z,1.43
2019-03-17T08:20:37.681Z,1.40
2019-03-17T08:25:41.647Z,1.20
2019-03-17T08:30:53.014Z,1.17
2019-03-17T08:35:50.741Z,1.40
2019-03-17T08:40:55.042Z,1.32
2019-03-17T08:45:58.711Z,1.10
2019-03-17T08:51:02.378Z,1.10
2019-03-17T08:56:06.166Z,1.00
2019-03-17T09:01:09.829Z,0.90
2019-03-17T09:06:14.014Z,0.85
2019-03-17T09:11:17.663Z,1.00
2019-03-17T09:16:21.795Z,0.90
2019-03-17T09:21:25.482Z,0.80
2019-03-17T09:26:29.140Z,0.80
2019-03-17T09:31:33.065Z,1.02
2019-03-17T09:36:36.729Z,1.02
2019-03-17T09:41:40.421Z,0.60
2019-03-17T09:46:44.090Z,0.60
2019-03-17T09:51:47.796Z,0.90
2019-03-17T09:56:51.594Z,0.90
2019-03-17T10:01:55.267Z,0.82
2019-03-17T10:06:59.248Z,0.80
2019-03-17T10:12:02.947Z,1.02
2019-03-17T10:17:06.698Z,0.80
2019-03-17T10:22:10.363Z,0.90
2019-03-17T10:27:14.050Z,1.00
2019-03-17T10:32:17.711Z,0.93
2019-03-17T10:37:21.424Z,0.90
2019-03-17T10:42:25.373Z,0.90
2019-03-17T10:47:29.060Z,0.80
2019-03-17T10:52:32.744Z,0.80
2019-03-17T10:57:36.402Z,1.05
2019-03-17T11:02:40.077Z,1.07
2019-03-17T11:07:43.983Z,1.00
2019-03-17T11:12:48.010Z,1.00
2019-03-17T11:17:51.673Z,0.90
2019-03-17T11:22:55.385Z,0.85
2019-03-17T11:27:59.076Z,1.07
2019-03-17T11:33:03.049Z,1.30
2019-03-17T11:38:07.018Z,1.30
2019-03-17T11:43:10.911Z,1.15
2019-03-17T11:48:14.869Z,1.10
2019-03-17T11:53:18.581Z,1.40
2019-03-17T11:58:22.249Z,1.30
2019-03-17T12:03:25.984Z,1.40
2019-03-17T12:08:29.704Z,1.22
2019-03-17T12:13:33.426Z,1.52
2019-03-17T12:18:37.106Z,1.40
2019-03-17T12:23:40.786Z,1.90
2019-03-17T12:28:44.782Z,1.77
2019-03-17T12:33:48.433Z,1.98
2019-03-17T12:38:52.088Z,2.30
2019-03-17T12:43:56.079Z,2.05
2019-03-17T12:49:00.296Z,1.95
2019-03-17T12:54:04.035Z,2.45
2019-03-17T12:59:07.798Z,2.35
2019-03-17T13:04:14.493Z,2.00
2019-03-17T13:09:18.479Z,2.22
2019-03-17T13:14:22.153Z,2.22
2019-03-17T13:19:26.318Z,2.20
2019-03-17T13:24:30.103Z,1.87
2019-03-17T13:29:33.745Z,1.98
2019-03-17T13:34:37.768Z,1.70
2019-03-17T13:39:41.459Z,1.50
2019-03-17T13:44:45.761Z,1.40
2019-03-17T13:49:49.430Z,1.13
2019-03-17T13:54:53.111Z,1.40
2019-03-17T13:59:57.073Z,1.37
2019-03-17T14:05:00.826Z,1.50
2019-03-17T14:10:13.685Z,1.80
2019-03-17T14:15:12.269Z,1.52
2019-03-17T14:20:17.021Z,1.57
2019-03-17T14:25:23.243Z,1.72
2019-03-17T14:30:27.946Z,1.62
2019-03-17T14:35:31.672Z,1.70
2019-03-17T14:40:35.642Z,1.30
2019-03-17T14:45:39.375Z,1.65
2019-03-17T14:50:43.322Z,1.30
2019-03-17T14:55:47.314Z,1.37
2019-03-17T15:00:51.196Z,1.40
2019-03-17T15:05:55.013Z,1.57
2019-03-17T15:11:05.962Z,1.43
2019-03-17T15:16:08.765Z,1.50
2019-03-17T15:21:12.492Z,1.50
2019-03-17T15:26:16.224Z,1.37
2019-03-17T15:31:19.869Z,1.30
2019-03-17T15:36:24.084Z,1.50
2019-03-17T15:41:28.101Z,1.50
2019-03-17T15:46:31.847Z,2.37
2019-03-17T15:51:38.705Z,1.70
2019-03-17T15:56:42.394Z,1.23
2019-03-17T16:01:46.082Z,0.90
2019-03-17T16:06:49.801Z,1.00
2019-03-17T16:11:53.485Z,1.10
2019-03-17T16:16:57.439Z,1.00
2019-03-17T16:22:01.368Z,1.03
2019-03-17T16:27:05.033Z,0.90
2019-03-17T16:32:08.685Z,0.70
2019-03-17T16:37:12.434Z,0.80
2019-03-17T16:42:16.060Z,0.67
2019-03-17T16:47:19.752Z,0.63
2019-03-17T16:52:23.729Z,0.60
2019-03-17T16:57:27.401Z,0.90
2019-03-17T17:02:31.399Z,0.97
2019-03-17T17:07:35.078Z,0.70
2019-03-17T17:12:38.834Z,0.60
2019-03-17T17:17:42.512Z,0.90
2019-03-17T17:22:46.322Z,0.77
2019-03-17T17:27:49.998Z,0.60
2019-03-17T17:32:53.681Z,0.80
2019-03-17T17:37:57.650Z,0.70
2019-03-17T17:43:01.675Z,0.70
2019-03-17T17:48:05.415Z,0.90
2019-03-17T17:53:09.431Z,0.80
2019-03-17T17:58:13.168Z,0.80
2019-03-17T18:03:16.856Z,0.70
2019-03-17T18:08:20.590Z,0.70
2019-03-17T18:13:24.557Z,0.90
2019-03-17T18:18:28.715Z,0.80
2019-03-17T18:23:32.397Z,0.70
2019-03-17T18:28:42.437Z,1.03
2019-03-17T18:34:05.368Z,0.90
2019-03-17T18:39:09.193Z,0.90
2019-03-17T18:44:13.669Z,0.70
2019-03-17T18:49:17.446Z,0.80
2019-03-17T18:54:22.031Z,2.27
2019-03-17T18:59:25.781Z,0.93
2019-03-17T19:04:29.437Z,1.37
2019-03-17T19:09:33.133Z,1.37
2019-03-17T19:14:37.094Z,1.40
2019-03-17T19:19:41.154Z,5.90
2019-03-17T19:24:45.170Z,1.03
2019-03-17T19:29:48.902Z,1.20
2019-03-17T19:34:52.647Z,1.03
2019-03-17T19:39:56.328Z,1.20
2019-03-17T19:45:00.269Z,1.00
2019-03-17T19:50:04.406Z,1.10
2019-03-17T19:55:08.209Z,0.97
2019-03-17T20:00:14.232Z,1.10
2019-03-17T20:05:18.491Z,1.13
2019-03-17T20:10:22.813Z,1.03
2019-03-17T20:15:26.798Z,1.20
2019-03-17T20:20:30.712Z,1.03
2019-03-17T20:25:34.374Z,1.13
2019-03-17T20:30:38.046Z,0.83
2019-03-17T20:35:41.735Z,1.40
2019-03-17T20:40:45.386Z,1.10
2019-03-17T20:45:49.083Z,1.10
2019-03-17T20:50:52.794Z,1.10
2019-03-17T20:55:56.450Z,0.93
2019-03-17T21:01:00.261Z,1.10
2019-03-17T21:06:04.386Z,1.20
2019-03-17T21:11:08.066Z,1.20
2019-03-17T21:16:12.041Z,1.50
2019-03-17T21:21:16.053Z,1.10
2019-03-17T21:26:19.745Z,1.00
2019-03-17T21:31:23.392Z,1.00
2019-03-17T21:36:27.343Z,1.10
2019-03-17T21:41:31.026Z,1.00
2019-03-17T21:46:35.130Z,1.03
2019-03-17T21:51:38.822Z,1.00
2019-03-17T21:56:42.732Z,1.00
2019-03-17T22:01:46.978Z,0.83
2019-03-17T22:06:50.696Z,0.97
2019-03-17T22:11:54.415Z,0.87
2019-03-17T22:16:58.104Z,1.20
2019-03-17T22:22:01.762Z,0.90
2019-03-17T22:27:05.430Z,1.30
2019-03-17T22:32:09.619Z,0.73
2019-03-17T22:37:13.581Z,1.00
2019-03-17T22:42:17.253Z,0.80
2019-03-17T22:47:21.178Z,1.03
2019-03-17T22:52:24.854Z,1.27
2019-03-17T22:57:29.206Z,0.90
2019-03-17T23:02:33.197Z,1.03
2019-03-17T23:07:37.345Z,1.07
2019-03-17T23:12:41.090Z,1.40
2019-03-17T23:17:45.507Z,1.07
2019-03-17T23:22:49.151Z,1.00
2019-03-17T23:27:52.829Z,1.17
2019-03-17T23:32:56.769Z,1.00
2019-03-17T23:38:00.426Z,1.20
2019-03-17T23:43:04.101Z,1.03
2019-03-17T23:48:07.788Z,1.50
2019-03-17T23:53:11.866Z,1.23
2019-03-17T23:58:15.546Z,1.30
